createdAt,value
2023-02-09T00:00:29.124Z,0.80
2023-02-09T00:02:57.079Z,0.80
2023-02-09T00:05:25.035Z,0.80
2023-02-09T00:07:52.977Z,0.80
2023-02-09T00:10:21.076Z,0.70
2023-02-09T00:13:06.300Z,0.70
2023-02-09T00:15:35.670Z,0.70
2023-02-09T00:18:03.610Z,0.70
2023-02-09T00:20:31.594Z,0.70
2023-02-09T00:22:59.572Z,0.60
2023-02-09T00:25:27.497Z,0.60
2023-02-09T00:27:55.521Z,0.60
2023-02-09T00:30:23.523Z,0.60
2023-02-09T00:32:52.902Z,0.60
2023-02-09T00:35:21.041Z,0.60
2023-02-09T00:37:48.983Z,0.60
2023-02-09T00:40:16.975Z,0.60
2023-02-09T00:42:45.041Z,0.50
2023-02-09T00:45:13.679Z,0.50
2023-02-09T00:47:41.798Z,0.50
2023-02-09T00:50:11.296Z,0.50
2023-02-09T00:52:39.326Z,0.50
2023-02-09T00:55:08.031Z,0.50
2023-02-09T00:57:36.083Z,0.50
2023-02-09T01:00:04.581Z,0.50
2023-02-09T01:02:32.661Z,0.50
2023-02-09T01:05:00.956Z,0.50
2023-02-09T01:07:30.307Z,0.40
2023-02-09T01:09:59.975Z,0.40
2023-02-09T01:12:27.913Z,0.40
2023-02-09T01:14:55.887Z,0.40
2023-02-09T01:17:23.863Z,0.40
2023-02-09T01:19:53.296Z,0.40
2023-02-09T01:22:22.335Z,0.40
2023-02-09T01:24:51.791Z,0.40
2023-02-09T01:27:19.897Z,0.40
2023-02-09T01:29:47.894Z,0.40
2023-02-09T01:32:15.974Z,0.40
2023-02-09T01:34:43.972Z,0.30
2023-02-09T01:37:11.947Z,0.30
2023-02-09T01:39:39.951Z,0.30
2023-02-09T01:42:14.662Z,0.30
2023-02-09T01:45:16.686Z,0.30
2023-02-09T01:47:48.194Z,0.30
2023-02-09T01:50:17.008Z,0.30
2023-02-09T01:52:45.797Z,0.30
2023-02-09T01:55:18.598Z,0.30
2023-02-09T01:57:52.307Z,0.30
2023-02-09T02:00:22.315Z,0.30
2023-02-09T02:02:53.979Z,0.30
2023-02-09T02:05:23.669Z,0.30
2023-02-09T02:07:58.642Z,0.20
2023-02-09T02:10:26.691Z,0.20
2023-02-09T02:12:56.138Z,0.20
2023-02-09T02:15:28.329Z,0.20
2023-02-09T02:18:15.667Z,0.20
2023-02-09T02:21:14.865Z,0.30
2023-02-09T02:23:49.383Z,0.20
2023-02-09T02:26:54.639Z,0.20
2023-02-09T02:29:44.900Z,0.20
2023-02-09T02:32:36.428Z,0.20
2023-02-09T02:35:11.752Z,0.20
2023-02-09T02:37:49.821Z,0.20
2023-02-09T02:40:27.534Z,0.20
2023-02-09T02:42:59.144Z,0.20
2023-02-09T02:45:36.572Z,0.20
2023-02-09T02:48:17.415Z,0.20
2023-02-09T02:50:49.243Z,0.20
2023-02-09T02:53:19.868Z,0.20
2023-02-09T02:55:50.449Z,0.20
2023-02-09T02:58:22.790Z,0.20
2023-02-09T03:00:53.280Z,0.20
2023-02-09T03:03:27.055Z,0.20
2023-02-09T03:05:55.277Z,0.20
2023-02-09T03:08:23.254Z,0.20
2023-02-09T03:10:51.406Z,0.20
2023-02-09T03:13:37.958Z,0.20
2023-02-09T03:16:21.642Z,0.20
2023-02-09T03:19:03.878Z,0.20
2023-02-09T03:21:42.594Z,0.20
2023-02-09T03:24:16.441Z,0.20
2023-02-09T03:26:50.494Z,0.20
2023-02-09T03:29:20.162Z,0.20
2023-02-09T03:31:50.075Z,0.10
2023-02-09T03:34:19.863Z,0.10
2023-02-09T03:36:52.536Z,0.20
2023-02-09T03:39:20.761Z,0.10
2023-02-09T03:41:48.797Z,0.20
2023-02-09T03:44:28.813Z,0.20
2023-02-09T03:46:59.071Z,0.10
2023-02-09T03:49:30.262Z,0.10
2023-02-09T03:52:00.659Z,0.20
2023-02-09T03:54:29.032Z,0.10
2023-02-09T03:56:57.023Z,0.20
2023-02-09T03:59:25.956Z,0.20
2023-02-09T04:01:54.667Z,0.10
2023-02-09T04:04:23.215Z,0.10
2023-02-09T04:06:53.123Z,0.10
2023-02-09T04:09:21.519Z,0.20
2023-02-09T04:11:49.559Z,0.10
2023-02-09T04:14:18.248Z,0.10
2023-02-09T04:16:46.245Z,0.20
2023-02-09T04:19:14.347Z,0.10
2023-02-09T04:21:42.497Z,0.20
2023-02-09T04:24:11.968Z,0.10
2023-02-09T04:26:39.978Z,0.20
2023-02-09T04:29:07.925Z,0.10
2023-02-09T04:31:36.036Z,0.10
2023-02-09T04:34:04.060Z,0.10
2023-02-09T04:36:32.076Z,0.20
2023-02-09T04:39:00.153Z,0.10
2023-02-09T04:41:29.519Z,0.10
2023-02-09T04:43:57.507Z,0.10
2023-02-09T04:46:25.512Z,0.10
2023-02-09T04:48:53.465Z,0.10
2023-02-09T04:51:21.382Z,0.10
2023-02-09T04:53:49.304Z,0.10
2023-02-09T04:56:18.276Z,0.10
2023-02-09T04:59:13.351Z,0.10
2023-02-09T05:01:41.447Z,0.10
2023-02-09T05:04:09.386Z,0.10
2023-02-09T05:06:37.416Z,0.10
2023-02-09T05:09:05.525Z,0.20
2023-02-09T05:11:33.511Z,0.10
2023-02-09T05:14:02.938Z,0.10
2023-02-09T05:16:31.060Z,0.10
2023-02-09T05:18:59.068Z,0.10
2023-02-09T05:21:27.139Z,0.10
2023-02-09T05:23:55.169Z,0.10
2023-02-09T05:26:23.202Z,0.10
2023-02-09T05:28:51.228Z,0.10
2023-02-09T05:31:20.701Z,0.10
2023-02-09T05:33:48.765Z,0.10
2023-02-09T05:36:16.733Z,0.10
2023-02-09T05:38:44.731Z,0.10
2023-02-09T05:41:36.251Z,0.20
2023-02-09T05:44:04.722Z,0.10
2023-02-09T05:46:34.022Z,0.10
2023-02-09T05:49:02.085Z,0.10
2023-02-09T05:51:30.165Z,0.10
2023-02-09T05:53:58.193Z,0.20
2023-02-09T05:56:26.336Z,0.10
2023-02-09T05:58:54.310Z,0.10
2023-02-09T06:01:22.337Z,0.10
2023-02-09T06:03:51.804Z,0.10
2023-02-09T06:06:19.788Z,0.10
2023-02-09T06:08:47.776Z,0.10
2023-02-09T06:11:15.788Z,0.10
2023-02-09T06:13:43.852Z,0.10
2023-02-09T06:16:11.894Z,0.10
2023-02-09T06:18:39.913Z,0.10
2023-02-09T06:21:09.660Z,0.10
2023-02-09T06:23:37.601Z,0.10
2023-02-09T06:26:07.899Z,0.10
2023-02-09T06:28:35.969Z,0.10
2023-02-09T06:31:05.473Z,0.10
2023-02-09T06:33:34.344Z,0.10
2023-02-09T06:36:02.357Z,0.10
2023-02-09T06:38:33.544Z,0.10
2023-02-09T06:41:01.563Z,0.10
2023-02-09T06:43:29.736Z,0.10
2023-02-09T06:45:57.880Z,0.10
2023-02-09T06:48:25.963Z,0.10
2023-02-09T06:50:54.083Z,0.00
2023-02-09T06:53:22.180Z,0.00
2023-02-09T06:55:51.512Z,0.10
2023-02-09T06:58:19.451Z,0.10
2023-02-09T07:00:47.733Z,0.00
2023-02-09T07:03:15.785Z,0.00
2023-02-09T07:05:43.733Z,0.10
2023-02-09T07:08:11.833Z,0.00
2023-02-09T07:10:41.849Z,0.00
2023-02-09T07:13:11.171Z,0.00
2023-02-09T07:15:39.157Z,0.00
2023-02-09T07:18:07.242Z,0.00
2023-02-09T07:20:35.194Z,0.00
2023-02-09T07:23:03.223Z,0.00
2023-02-09T07:25:32.188Z,0.00
2023-02-09T07:28:00.299Z,0.00
2023-02-09T07:30:29.812Z,0.00
2023-02-09T07:32:57.812Z,0.00
2023-02-09T07:35:25.915Z,0.10
2023-02-09T07:37:53.956Z,0.00
2023-02-09T07:40:22.026Z,0.00
2023-02-09T07:42:51.886Z,0.00
2023-02-09T07:45:19.885Z,0.10
2023-02-09T07:47:49.200Z,0.10
2023-02-09T07:50:19.151Z,0.00
2023-02-09T07:52:48.017Z,0.10
2023-02-09T07:55:16.028Z,0.10
2023-02-09T07:57:44.994Z,0.10
2023-02-09T08:00:14.107Z,0.10
2023-02-09T08:02:42.115Z,0.10
2023-02-09T08:05:17.470Z,0.10
2023-02-09T08:07:45.820Z,0.10
2023-02-09T08:10:13.893Z,0.10
2023-02-09T08:12:59.467Z,0.10
2023-02-09T08:15:29.051Z,0.10
2023-02-09T08:18:00.980Z,0.10
2023-02-09T08:20:32.151Z,0.10
2023-02-09T08:23:07.430Z,0.20
2023-02-09T08:25:36.932Z,0.20
2023-02-09T08:28:05.718Z,0.20
2023-02-09T08:30:35.424Z,0.20
2023-02-09T08:33:03.727Z,0.20
2023-02-09T08:35:33.156Z,0.20
2023-02-09T08:38:02.570Z,0.30
2023-02-09T08:40:31.048Z,0.30
2023-02-09T08:42:59.053Z,0.30
2023-02-09T08:45:27.129Z,0.30
2023-02-09T08:47:55.217Z,0.30
2023-02-09T08:50:23.182Z,0.30
2023-02-09T08:52:52.549Z,0.40
2023-02-09T08:55:20.714Z,0.40
2023-02-09T08:57:48.710Z,0.40
2023-02-09T09:00:17.772Z,0.40
2023-02-09T09:02:45.798Z,0.40
2023-02-09T09:05:14.004Z,0.40
2023-02-09T09:07:42.144Z,0.50
2023-02-09T09:10:12.474Z,0.50
2023-02-09T09:12:40.615Z,0.50
2023-02-09T09:15:09.195Z,0.60
2023-02-09T09:17:37.183Z,0.60
2023-02-09T09:20:06.974Z,0.60
2023-02-09T09:22:34.983Z,0.60
2023-02-09T09:25:03.277Z,0.70
2023-02-09T09:27:34.960Z,0.70
2023-02-09T09:30:03.034Z,0.80
2023-02-09T09:32:31.218Z,0.80
2023-02-09T09:35:00.680Z,0.80
2023-02-09T09:37:28.811Z,0.90
2023-02-09T09:39:56.750Z,0.90
2023-02-09T09:42:28.774Z,1.00
2023-02-09T09:44:58.424Z,1.00
2023-02-09T09:47:35.599Z,1.10
2023-02-09T09:50:05.281Z,1.10
2023-02-09T09:52:38.161Z,1.20
2023-02-09T09:55:10.144Z,1.30
2023-02-09T09:57:43.798Z,1.30
2023-02-09T10:00:20.079Z,1.30
2023-02-09T10:02:48.326Z,1.40
2023-02-09T10:05:20.341Z,1.40
2023-02-09T10:07:54.274Z,1.50
2023-02-09T10:10:31.998Z,1.50
2023-02-09T10:13:03.740Z,1.60
2023-02-09T10:15:36.002Z,1.60
2023-02-09T10:18:07.714Z,1.70
2023-02-09T10:20:45.303Z,1.70
2023-02-09T10:23:18.956Z,1.80
2023-02-09T10:26:01.088Z,1.80
2023-02-09T10:28:31.302Z,1.80
2023-02-09T10:31:02.978Z,1.90
2023-02-09T10:33:40.226Z,1.90
2023-02-09T10:36:20.945Z,2.00
2023-02-09T10:38:48.952Z,2.00
2023-02-09T10:41:17.392Z,2.10
2023-02-09T10:43:51.644Z,2.10
2023-02-09T10:46:21.844Z,2.10
2023-02-09T10:48:49.882Z,2.20
2023-02-09T10:51:28.861Z,2.20
2023-02-09T10:54:02.908Z,2.20
2023-02-09T10:56:43.806Z,2.30
2023-02-09T10:59:18.361Z,2.30
2023-02-09T11:01:57.417Z,2.40
2023-02-09T11:04:27.531Z,2.40
2023-02-09T11:06:58.830Z,2.50
2023-02-09T11:09:30.292Z,2.50
2023-02-09T11:11:58.693Z,2.60
2023-02-09T11:14:27.012Z,2.60
2023-02-09T11:17:14.153Z,2.70
2023-02-09T11:20:05.545Z,2.70
2023-02-09T11:23:00.571Z,2.80
2023-02-09T11:25:32.274Z,2.80
2023-02-09T11:28:25.027Z,2.90
2023-02-09T11:31:10.743Z,2.90
2023-02-09T11:33:48.360Z,3.00
2023-02-09T11:36:25.826Z,3.00
2023-02-09T11:38:58.252Z,3.10
2023-02-09T11:41:48.137Z,3.10
2023-02-09T11:44:25.870Z,3.20
2023-02-09T11:47:00.159Z,3.20
2023-02-09T11:49:34.945Z,3.30
2023-02-09T11:52:04.737Z,3.30
2023-02-09T11:54:37.584Z,3.30
2023-02-09T11:57:16.256Z,3.40
2023-02-09T11:59:56.380Z,3.40
2023-02-09T12:02:38.975Z,3.50
2023-02-09T12:05:13.294Z,3.50
2023-02-09T12:07:49.170Z,3.60
2023-02-09T12:10:24.802Z,3.60
2023-02-09T12:12:59.762Z,3.70
2023-02-09T12:15:37.241Z,3.70
2023-02-09T12:18:12.557Z,3.80
2023-02-09T12:20:52.053Z,3.80
2023-02-09T12:23:25.102Z,3.90
2023-02-09T12:25:59.501Z,4.00
2023-02-09T12:28:44.572Z,4.10
2023-02-09T12:31:16.002Z,4.10
2023-02-09T12:34:04.016Z,4.20
2023-02-09T12:36:34.930Z,4.20
2023-02-09T12:39:24.333Z,4.30
2023-02-09T12:42:26.380Z,4.30
2023-02-09T12:45:00.552Z,4.30
2023-02-09T12:47:43.352Z,4.40
2023-02-09T12:50:24.725Z,4.40
2023-02-09T12:53:30.181Z,4.50
2023-02-09T12:56:05.306Z,4.60
2023-02-09T12:58:41.138Z,4.60
2023-02-09T13:01:09.744Z,4.60
2023-02-09T13:03:45.219Z,4.70
2023-02-09T13:06:29.369Z,4.70
2023-02-09T13:08:59.720Z,4.80
2023-02-09T13:11:32.362Z,4.80
2023-02-09T13:14:05.927Z,4.80
2023-02-09T13:17:29.433Z,4.90
2023-02-09T13:20:12.658Z,4.90
2023-02-09T13:22:51.761Z,5.00
2023-02-09T13:25:27.646Z,5.00
2023-02-09T13:27:57.126Z,5.00
2023-02-09T13:30:30.974Z,5.00
2023-02-09T13:33:06.519Z,5.00
2023-02-09T13:35:38.678Z,5.10
2023-02-09T13:38:16.984Z,5.10
2023-02-09T13:40:48.045Z,5.10
2023-02-09T13:43:30.044Z,5.10
2023-02-09T13:45:59.658Z,5.20
2023-02-09T13:48:30.317Z,5.20
2023-02-09T13:51:00.857Z,5.20
2023-02-09T13:53:30.627Z,5.30
2023-02-09T13:56:00.846Z,5.30
2023-02-09T13:58:35.152Z,5.30
2023-02-09T14:01:06.197Z,5.30
2023-02-09T14:03:56.648Z,5.30
2023-02-09T14:06:32.477Z,5.30
2023-02-09T14:09:02.559Z,5.30
2023-02-09T14:11:42.559Z,5.30
2023-02-09T14:14:16.421Z,5.30
2023-02-09T14:16:52.977Z,5.30
2023-02-09T14:19:27.475Z,5.30
2023-02-09T14:21:55.589Z,5.40
2023-02-09T14:24:25.420Z,5.40
2023-02-09T14:26:56.057Z,5.40
2023-02-09T14:29:28.499Z,5.40
2023-02-09T14:31:58.130Z,5.40
2023-02-09T14:34:33.556Z,5.40
2023-02-09T14:37:05.343Z,5.40
2023-02-09T14:39:33.398Z,5.40
2023-02-09T14:42:18.019Z,5.40
2023-02-09T14:44:49.360Z,5.40
2023-02-09T14:47:39.412Z,5.40
2023-02-09T14:50:09.602Z,5.40
2023-02-09T14:52:39.767Z,5.50
2023-02-09T14:55:15.834Z,5.50
2023-02-09T14:57:43.862Z,5.50
2023-02-09T15:00:18.915Z,5.40
2023-02-09T15:02:47.399Z,5.50
2023-02-09T15:05:15.787Z,5.50
2023-02-09T15:07:47.076Z,5.50
2023-02-09T15:10:24.676Z,5.50
2023-02-09T15:12:52.999Z,5.50
2023-02-09T15:15:23.705Z,5.50
2023-02-09T15:17:51.943Z,5.50
2023-02-09T15:20:24.454Z,5.50
2023-02-09T15:22:52.516Z,5.50
2023-02-09T15:25:20.526Z,5.50
2023-02-09T15:27:51.668Z,5.50
2023-02-09T15:30:23.597Z,5.50
2023-02-09T15:32:51.673Z,5.50
2023-02-09T15:35:21.587Z,5.50
2023-02-09T15:37:52.453Z,5.50
2023-02-09T15:40:45.006Z,5.50
2023-02-09T15:43:32.529Z,5.50
2023-02-09T15:46:19.215Z,5.50
2023-02-09T15:48:47.282Z,5.50
2023-02-09T15:51:15.691Z,5.50
2023-02-09T15:53:44.006Z,5.50
2023-02-09T15:56:14.245Z,5.50
2023-02-09T15:58:44.849Z,5.50
2023-02-09T16:01:16.707Z,5.50
2023-02-09T16:03:45.318Z,5.50
2023-02-09T16:06:15.750Z,5.50
2023-02-09T16:08:45.189Z,5.50
2023-02-09T16:11:19.891Z,5.50
2023-02-09T16:13:48.244Z,5.40
2023-02-09T16:16:18.393Z,5.50
2023-02-09T16:18:46.482Z,5.40
2023-02-09T16:21:20.979Z,5.50
2023-02-09T16:23:49.556Z,5.40
2023-02-09T16:26:19.364Z,5.40
2023-02-09T16:28:48.181Z,5.40
2023-02-09T16:31:17.632Z,5.40
2023-02-09T16:33:45.841Z,5.40
2023-02-09T16:36:16.732Z,5.40
2023-02-09T16:38:45.347Z,5.40
2023-02-09T16:41:37.855Z,5.40
2023-02-09T16:44:16.453Z,5.40
2023-02-09T16:46:46.855Z,5.40
2023-02-09T16:49:31.124Z,5.40
2023-02-09T16:52:02.990Z,5.40
2023-02-09T16:54:34.143Z,5.40
2023-02-09T16:57:02.705Z,5.40
2023-02-09T16:59:30.769Z,5.40
2023-02-09T17:02:02.147Z,5.40
2023-02-09T17:04:30.292Z,5.40
2023-02-09T17:06:58.303Z,5.40
2023-02-09T17:09:26.305Z,5.40
2023-02-09T17:11:54.316Z,5.30
2023-02-09T17:14:22.312Z,5.30
2023-02-09T17:16:50.632Z,5.30
2023-02-09T17:19:20.112Z,5.30
2023-02-09T17:21:48.086Z,5.30
2023-02-09T17:24:17.998Z,5.30
2023-02-09T17:26:46.187Z,5.30
2023-02-09T17:29:14.544Z,5.30
2023-02-09T17:31:53.359Z,5.30
2023-02-09T17:34:27.133Z,5.20
2023-02-09T17:36:55.315Z,5.20
2023-02-09T17:39:23.264Z,5.20
2023-02-09T17:41:51.279Z,5.20
2023-02-09T17:44:34.880Z,5.20
2023-02-09T17:47:11.174Z,5.10
2023-02-09T17:49:40.546Z,5.10
2023-02-09T17:52:12.954Z,5.10
2023-02-09T17:54:41.001Z,5.10
2023-02-09T17:57:12.742Z,5.00
2023-02-09T17:59:40.702Z,5.00
2023-02-09T18:02:15.905Z,5.00
2023-02-09T18:04:45.588Z,4.90
2023-02-09T18:07:14.516Z,4.90
2023-02-09T18:09:42.519Z,4.90
2023-02-09T18:12:18.947Z,4.90
2023-02-09T18:14:46.955Z,4.80
2023-02-09T18:17:15.500Z,4.80
2023-02-09T18:19:44.946Z,4.80
2023-02-09T18:22:16.993Z,4.70
2023-02-09T18:24:45.854Z,4.70
2023-02-09T18:27:15.926Z,4.70
2023-02-09T18:29:43.978Z,4.70
2023-02-09T18:32:13.924Z,4.60
2023-02-09T18:34:42.082Z,4.60
2023-02-09T18:37:11.422Z,4.60
2023-02-09T18:39:46.031Z,4.50
2023-02-09T18:42:15.448Z,4.50
2023-02-09T18:44:43.428Z,4.50
2023-02-09T18:47:12.172Z,4.40
2023-02-09T18:49:40.341Z,4.40
2023-02-09T18:52:10.257Z,4.40
2023-02-09T18:54:40.563Z,4.30
2023-02-09T18:57:08.556Z,4.30
2023-02-09T18:59:37.275Z,4.30
2023-02-09T19:02:05.239Z,4.30
2023-02-09T19:04:33.345Z,4.20
2023-02-09T19:07:02.264Z,4.20
2023-02-09T19:09:30.292Z,4.20
2023-02-09T19:11:59.670Z,4.10
2023-02-09T19:14:39.815Z,4.10
2023-02-09T19:17:09.512Z,4.10
2023-02-09T19:19:38.756Z,4.00
2023-02-09T19:22:06.994Z,4.00
2023-02-09T19:24:34.977Z,4.00
2023-02-09T19:27:06.662Z,4.00
2023-02-09T19:29:34.720Z,3.90
2023-02-09T19:32:03.081Z,3.90
2023-02-09T19:34:32.062Z,3.90
2023-02-09T19:37:00.454Z,3.90
2023-02-09T19:39:28.488Z,3.80
2023-02-09T19:41:56.458Z,3.80
2023-02-09T19:44:25.768Z,3.80
2023-02-09T19:46:53.779Z,3.80
2023-02-09T19:49:22.957Z,3.70
2023-02-09T19:51:51.426Z,3.70
2023-02-09T19:54:19.526Z,3.70
2023-02-09T19:56:47.492Z,3.70
2023-02-09T19:59:16.999Z,3.60
2023-02-09T20:01:46.347Z,3.60
2023-02-09T20:04:14.533Z,3.60
2023-02-09T20:06:42.808Z,3.60
2023-02-09T20:09:12.339Z,3.50
2023-02-09T20:11:40.409Z,3.50
2023-02-09T20:14:08.409Z,3.50
2023-02-09T20:16:36.476Z,3.50
2023-02-09T20:19:06.921Z,3.50
2023-02-09T20:21:35.608Z,3.40
2023-02-09T20:24:09.299Z,3.40
2023-02-09T20:26:37.587Z,3.40
2023-02-09T20:29:06.388Z,3.40
2023-02-09T20:31:37.228Z,3.30
2023-02-09T20:34:08.334Z,3.30
2023-02-09T20:36:37.626Z,3.30
2023-02-09T20:39:06.422Z,3.30
2023-02-09T20:41:34.571Z,3.30
2023-02-09T20:44:20.319Z,3.20
2023-02-09T20:46:57.544Z,3.20
2023-02-09T20:49:31.357Z,3.20
2023-02-09T20:51:59.841Z,3.20
2023-02-09T20:54:28.024Z,3.20
2023-02-09T20:56:55.987Z,3.10
2023-02-09T20:59:23.975Z,3.10
2023-02-09T21:01:52.239Z,3.10
2023-02-09T21:04:20.430Z,3.10
2023-02-09T21:06:49.781Z,3.10
2023-02-09T21:09:19.091Z,3.10
2023-02-09T21:11:47.261Z,3.10
2023-02-09T21:14:27.098Z,3.00
2023-02-09T21:16:56.376Z,3.00
2023-02-09T21:19:24.860Z,3.00
2023-02-09T21:21:54.250Z,3.00
2023-02-09T21:24:22.484Z,3.00
2023-02-09T21:26:50.417Z,2.90
2023-02-09T21:29:18.879Z,2.90
2023-02-09T21:31:47.157Z,2.90
2023-02-09T21:34:15.977Z,2.90
2023-02-09T21:36:44.502Z,2.90
2023-02-09T21:39:14.397Z,2.90
2023-02-09T21:41:59.825Z,2.90
2023-02-09T21:44:27.843Z,2.80
2023-02-09T21:46:55.902Z,2.80
2023-02-09T21:49:24.305Z,2.80
2023-02-09T21:51:52.284Z,2.80
2023-02-09T21:54:21.691Z,2.70
2023-02-09T21:56:49.691Z,2.80
2023-02-09T21:59:17.726Z,2.70
2023-02-09T22:01:45.693Z,2.70
2023-02-09T22:04:13.767Z,2.70
2023-02-09T22:06:42.760Z,2.70
2023-02-09T22:09:10.700Z,2.60
2023-02-09T22:11:40.382Z,2.70
2023-02-09T22:14:09.207Z,2.60
2023-02-09T22:16:37.215Z,2.60
2023-02-09T22:19:05.640Z,2.60
2023-02-09T22:21:33.611Z,2.60
2023-02-09T22:24:01.642Z,2.60
2023-02-09T22:26:29.564Z,2.60
2023-02-09T22:28:58.958Z,2.50
2023-02-09T22:31:26.912Z,2.50
2023-02-09T22:33:55.770Z,2.50
2023-02-09T22:36:24.378Z,2.50
2023-02-09T22:38:52.657Z,2.50
2023-02-09T22:41:25.182Z,2.50
2023-02-09T22:43:55.829Z,2.50
2023-02-09T22:46:27.371Z,2.50
2023-02-09T22:48:56.971Z,2.40
2023-02-09T22:51:25.857Z,2.40
2023-02-09T22:53:53.842Z,2.40
2023-02-09T22:56:21.902Z,2.40
2023-02-09T22:58:50.156Z,2.40
2023-02-09T23:01:18.839Z,2.40
2023-02-09T23:03:48.522Z,2.30
2023-02-09T23:06:18.550Z,2.30
2023-02-09T23:08:46.689Z,2.30
2023-02-09T23:11:16.665Z,2.30
2023-02-09T23:13:45.539Z,2.30
2023-02-09T23:16:15.549Z,2.30
2023-02-09T23:18:49.427Z,2.30
2023-02-09T23:21:17.853Z,2.20
2023-02-09T23:23:46.160Z,2.20
2023-02-09T23:26:15.088Z,2.20
2023-02-09T23:28:43.196Z,2.20
2023-02-09T23:31:14.597Z,2.20
2023-02-09T23:33:43.254Z,2.20
2023-02-09T23:36:16.346Z,2.20
2023-02-09T23:38:45.214Z,2.20
2023-02-09T23:41:15.263Z,2.20
2023-02-09T23:43:44.247Z,2.10
2023-02-09T23:46:14.216Z,2.10
2023-02-09T23:48:42.400Z,2.10
2023-02-09T23:51:15.281Z,2.10
2023-02-09T23:53:43.497Z,2.10
2023-02-09T23:56:13.381Z,2.10
2023-02-09T23:58:42.995Z,2.10
